sensor_id;sensor_type;location;lat;lon;timestamp;pressure;altitude;pressure_sealevel;temperature;humidity
17607;BME280;69222;52.242;20.980;2024-03-02T00:01:13;100097.25;;;7.45;84.95
17607;BME280;69222;52.242;20.980;2024-03-02T00:03:42;100078.44;;;7.42;85.31
17607;BME280;69222;52.242;20.980;2024-03-02T00:06:10;100087.00;;;7.41;86.02
17607;BME280;69222;52.242;20.980;2024-03-02T00:08:39;100092.94;;;7.40;86.22
17607;BME280;69222;52.242;20.980;2024-03-02T00:11:07;100077.56;;;7.38;85.59
17607;BME280;69222;52.242;20.980;2024-03-02T00:13:37;100080.97;;;7.36;85.68
17607;BME280;69222;52.242;20.980;2024-03-02T00:16:06;100081.84;;;7.36;86.02
17607;BME280;69222;52.242;20.980;2024-03-02T00:18:36;100077.59;;;7.37;85.90
17607;BME280;69222;52.242;20.980;2024-03-02T00:21:06;100073.28;;;7.36;85.37
17607;BME280;69222;52.242;20.980;2024-03-02T00:23:36;100077.59;;;7.37;85.72
17607;BME280;69222;52.242;20.980;2024-03-02T00:26:05;100083.53;;;7.33;85.76
17607;BME280;69222;52.242;20.980;2024-03-02T00:28:36;100076.69;;;7.29;86.28
17607;BME280;69222;52.242;20.980;2024-03-02T00:31:06;100066.44;;;7.27;86.08
17607;BME280;69222;52.242;20.980;2024-03-02T00:33:37;100074.13;;;7.24;85.94
17607;BME280;69222;52.242;20.980;2024-03-02T00:36:07;100070.72;;;7.23;86.37
17607;BME280;69222;52.242;20.980;2024-03-02T00:38:44;100074.13;;;7.22;86.10
17607;BME280;69222;52.242;20.980;2024-03-02T00:41:18;100079.25;;;7.19;86.23
17607;BME280;69222;52.242;20.980;2024-03-02T00:43:56;100064.72;;;7.17;87.00
17607;BME280;69222;52.242;20.980;2024-03-02T00:46:29;100064.72;;;7.15;86.25
17607;BME280;69222;52.242;20.980;2024-03-02T00:49:00;100074.94;;;7.12;86.07
17607;BME280;69222;52.242;20.980;2024-03-02T00:51:30;100071.53;;;7.09;86.31
17607;BME280;69222;52.242;20.980;2024-03-02T00:54:00;100078.34;;;7.08;86.31
17607;BME280;69222;52.242;20.980;2024-03-02T00:56:31;100076.66;;;7.07;86.90
17607;BME280;69222;52.242;20.980;2024-03-02T00:59:00;100084.31;;;7.10;87.29
17607;BME280;69222;52.242;20.980;2024-03-02T01:01:28;100072.38;;;7.09;86.35
17607;BME280;69222;52.242;20.980;2024-03-02T01:03:56;100077.50;;;7.09;86.19
17607;BME280;69222;52.242;20.980;2024-03-02T01:06:26;100073.25;;;7.08;86.43
17607;BME280;69222;52.242;20.980;2024-03-02T01:08:54;100068.97;;;7.07;85.99
17607;BME280;69222;52.242;20.980;2024-03-02T01:11:22;100065.53;;;7.07;85.89
17607;BME280;69222;52.242;20.980;2024-03-02T01:13:51;100067.22;;;7.03;86.29
17607;BME280;69222;52.242;20.980;2024-03-02T01:16:19;100060.41;;;7.00;86.59
17607;BME280;69222;52.242;20.980;2024-03-02T01:18:47;100063.81;;;7.01;87.17
17607;BME280;69222;52.242;20.980;2024-03-02T01:21:16;100062.09;;;6.98;86.87
17607;BME280;69222;52.242;20.980;2024-03-02T01:23:46;100060.38;;;6.94;86.56
17607;BME280;69222;52.242;20.980;2024-03-02T01:26:13;100055.25;;;6.90;87.34
17607;BME280;69222;52.242;20.980;2024-03-02T01:28:42;100067.19;;;6.91;87.15
17607;BME280;69222;52.242;20.980;2024-03-02T01:31:10;100056.09;;;6.92;87.52
17607;BME280;69222;52.242;20.980;2024-03-02T01:33:38;100047.53;;;6.88;87.59
17607;BME280;69222;52.242;20.980;2024-03-02T01:36:06;100055.25;;;6.90;87.35
17607;BME280;69222;52.242;20.980;2024-03-02T01:38:35;100064.63;;;6.89;87.69
17607;BME280;69222;52.242;20.980;2024-03-02T01:41:04;100058.66;;;6.86;87.25
17607;BME280;69222;52.242;20.980;2024-03-02T01:43:32;100041.56;;;6.82;87.72
17607;BME280;69222;52.242;20.980;2024-03-02T01:46:03;100044.97;;;6.82;87.33
17607;BME280;69222;52.242;20.980;2024-03-02T01:48:32;100042.41;;;6.77;87.41
17607;BME280;69222;52.242;20.980;2024-03-02T01:51:04;100049.22;;;6.78;88.07
17607;BME280;69222;52.242;20.980;2024-03-02T01:53:33;100046.66;;;6.78;88.32
17607;BME280;69222;52.242;20.980;2024-03-02T01:56:02;100044.09;;;6.77;87.42
17607;BME280;69222;52.242;20.980;2024-03-02T01:58:32;100035.56;;;6.76;87.46
17607;BME280;69222;52.242;20.980;2024-03-02T02:01:00;100034.72;;;6.74;87.52
17607;BME280;69222;52.242;20.980;2024-03-02T02:03:28;100043.22;;;6.73;87.49
17607;BME280;69222;52.242;20.980;2024-03-02T02:05:57;100037.25;;;6.71;88.01
17607;BME280;69222;52.242;20.980;2024-03-02T02:08:25;100038.94;;;6.72;88.06
17607;BME280;69222;52.242;20.980;2024-03-02T02:10:53;100040.66;;;6.70;88.59
17607;BME280;69222;52.242;20.980;2024-03-02T02:13:21;100042.34;;;6.68;88.95
17607;BME280;69222;52.242;20.980;2024-03-02T02:15:51;100045.75;;;6.69;88.06
17607;BME280;69222;52.242;20.980;2024-03-02T02:18:20;100035.53;;;6.67;88.30
17607;BME280;69222;52.242;20.980;2024-03-02T02:20:48;100036.34;;;6.66;88.32
17607;BME280;69222;52.242;20.980;2024-03-02T02:23:17;100032.09;;;6.64;88.14
17607;BME280;69222;52.242;20.980;2024-03-02T02:25:45;100025.28;;;6.64;89.29
17607;BME280;69222;52.242;20.980;2024-03-02T02:28:13;100031.25;;;6.63;88.66
17607;BME280;69222;52.242;20.980;2024-03-02T02:30:41;100025.25;;;6.63;88.48
17607;BME280;69222;52.242;20.980;2024-03-02T02:33:09;100030.38;;;6.61;88.12
17607;BME280;69222;52.242;20.980;2024-03-02T02:35:37;100029.53;;;6.59;88.69
17607;BME280;69222;52.242;20.980;2024-03-02T02:38:05;100021.81;;;6.58;88.71
17607;BME280;69222;52.242;20.980;2024-03-02T02:40:35;100027.78;;;6.55;88.66
17607;BME280;69222;52.242;20.980;2024-03-02T02:43:04;100021.81;;;6.53;88.64
17607;BME280;69222;52.242;20.980;2024-03-02T02:45:34;100021.78;;;6.50;89.29
17607;BME280;69222;52.242;20.980;2024-03-02T02:48:02;100025.22;;;6.49;88.73
17607;BME280;69222;52.242;20.980;2024-03-02T02:50:32;100026.03;;;6.48;88.74
17607;BME280;69222;52.242;20.980;2024-03-02T02:53:03;100024.34;;;6.47;89.48
17607;BME280;69222;52.242;20.980;2024-03-02T02:55:31;100016.69;;;6.48;89.72
17607;BME280;69222;52.242;20.980;2024-03-02T02:58:03;100029.44;;;6.47;89.64
17607;BME280;69222;52.242;20.980;2024-03-02T03:00:31;100014.06;;;6.44;89.31
17607;BME280;69222;52.242;20.980;2024-03-02T03:03:01;100012.38;;;6.43;89.31
17607;BME280;69222;52.242;20.980;2024-03-02T03:05:32;100014.91;;;6.40;89.51
17607;BME280;69222;52.242;20.980;2024-03-02T03:08:00;100008.94;;;6.39;89.42
17607;BME280;69222;52.242;20.980;2024-03-02T03:10:29;100003.84;;;6.38;89.64
17607;BME280;69222;52.242;20.980;2024-03-02T03:12:57;100006.38;;;6.36;89.63
17607;BME280;69222;52.242;20.980;2024-03-02T03:15:26;100003.81;;;6.35;89.76
17607;BME280;69222;52.242;20.980;2024-03-02T03:17:55;100004.66;;;6.34;89.81
17607;BME280;69222;52.242;20.980;2024-03-02T03:20:23;100002.94;;;6.33;90.72
17607;BME280;69222;52.242;20.980;2024-03-02T03:22:51;100003.78;;;6.32;89.51
17607;BME280;69222;52.242;20.980;2024-03-02T03:25:19;100011.47;;;6.32;90.36
17607;BME280;69222;52.242;20.980;2024-03-02T03:27:47;100018.25;;;6.29;90.17
17607;BME280;69222;52.242;20.980;2024-03-02T03:30:15;100005.47;;;6.26;90.33
17607;BME280;69222;52.242;20.980;2024-03-02T03:32:45;99997.81;;;6.26;90.29
17607;BME280;69222;52.242;20.980;2024-03-02T03:35:14;100008.03;;;6.26;90.73
17607;BME280;69222;52.242;20.980;2024-03-02T03:37:42;100002.03;;;6.24;90.20
17607;BME280;69222;52.242;20.980;2024-03-02T03:40:11;100010.56;;;6.20;90.32
17607;BME280;69222;52.242;20.980;2024-03-02T03:42:40;100009.69;;;6.18;90.35
17607;BME280;69222;52.242;20.980;2024-03-02T03:45:09;100016.53;;;6.19;90.32
17607;BME280;69222;52.242;20.980;2024-03-02T03:47:37;100004.56;;;6.18;90.24
17607;BME280;69222;52.242;20.980;2024-03-02T03:50:07;100010.53;;;6.17;90.86
17607;BME280;69222;52.242;20.980;2024-03-02T03:52:35;99996.03;;;6.16;90.94
17607;BME280;69222;52.242;20.980;2024-03-02T03:55:04;100000.31;;;6.17;90.86
17607;BME280;69222;52.242;20.980;2024-03-02T03:57:33;99998.59;;;6.16;91.77
17607;BME280;69222;52.242;20.980;2024-03-02T04:00:01;100004.56;;;6.17;91.28
17607;BME280;69222;52.242;20.980;2024-03-02T04:02:29;99999.44;;;6.14;91.00
17607;BME280;69222;52.242;20.980;2024-03-02T04:04:57;99999.44;;;6.12;91.01
17607;BME280;69222;52.242;20.980;2024-03-02T04:07:27;100003.66;;;6.10;91.26
17607;BME280;69222;52.242;20.980;2024-03-02T04:09:55;100002.81;;;6.08;91.38
17607;BME280;69222;52.242;20.980;2024-03-02T04:12:23;100006.19;;;6.07;90.98
17607;BME280;69222;52.242;20.980;2024-03-02T04:14:51;100011.31;;;6.07;91.63
17607;BME280;69222;52.242;20.980;2024-03-02T04:17:19;100002.78;;;6.07;91.11
17607;BME280;69222;52.242;20.980;2024-03-02T04:19:47;100007.91;;;6.05;91.22
17607;BME280;69222;52.242;20.980;2024-03-02T04:22:15;100010.47;;;6.05;91.50
17607;BME280;69222;52.242;20.980;2024-03-02T04:24:52;100020.69;;;6.05;91.75
17607;BME280;69222;52.242;20.980;2024-03-02T04:27:20;100012.19;;;6.06;91.31
17607;BME280;69222;52.242;20.980;2024-03-02T04:29:48;100027.53;;;6.06;91.30
17607;BME280;69222;52.242;20.980;2024-03-02T04:32:16;100019.00;;;6.04;91.28
17607;BME280;69222;52.242;20.980;2024-03-02T04:34:46;100010.44;;;6.02;91.26
17607;BME280;69222;52.242;20.980;2024-03-02T04:37:14;100014.69;;;5.98;92.10
17607;BME280;69222;52.242;20.980;2024-03-02T04:39:42;100012.13;;;5.97;92.08
17607;BME280;69222;52.242;20.980;2024-03-02T04:42:11;100006.13;;;5.95;92.50
17607;BME280;69222;52.242;20.980;2024-03-02T04:44:39;100012.09;;;5.95;92.38
17607;BME280;69222;52.242;20.980;2024-03-02T04:47:07;100004.44;;;5.94;92.20
17607;BME280;69222;52.242;20.980;2024-03-02T04:49:36;100007.84;;;5.96;92.42
17607;BME280;69222;52.242;20.980;2024-03-02T04:52:07;100011.25;;;5.96;91.87
17607;BME280;69222;52.242;20.980;2024-03-02T04:54:35;100002.72;;;5.96;92.17
17607;BME280;69222;52.242;20.980;2024-03-02T04:57:24;100007.88;;;5.97;92.83
17607;BME280;69222;52.242;20.980;2024-03-02T04:59:51;100001.03;;;5.98;92.31
17607;BME280;69222;52.242;20.980;2024-03-02T05:02:19;100001.91;;;6.00;92.81
17607;BME280;69222;52.242;20.980;2024-03-02T05:04:47;100010.41;;;5.99;92.48
17607;BME280;69222;52.242;20.980;2024-03-02T05:07:15;100009.59;;;6.01;91.69
17607;BME280;69222;52.242;20.980;2024-03-02T05:09:43;100015.56;;;6.03;93.10
17607;BME280;69222;52.242;20.980;2024-03-02T05:12:11;100020.69;;;6.07;92.46
17607;BME280;69222;52.242;20.980;2024-03-02T05:14:57;100022.44;;;6.08;92.38
17607;BME280;69222;52.242;20.980;2024-03-02T05:17:25;100030.94;;;6.07;91.17
17607;BME280;69222;52.242;20.980;2024-03-02T05:19:53;100034.34;;;6.04;90.72
17607;BME280;69222;52.242;20.980;2024-03-02T05:22:21;100034.31;;;6.02;91.92
17607;BME280;69222;52.242;20.980;2024-03-02T05:24:49;100024.94;;;6.01;92.03
17607;BME280;69222;52.242;20.980;2024-03-02T05:27:17;100037.72;;;6.01;91.93
17607;BME280;69222;52.242;20.980;2024-03-02T05:29:45;100042.84;;;6.01;92.13
17607;BME280;69222;52.242;20.980;2024-03-02T05:32:15;100044.53;;;5.99;92.07
17607;BME280;69222;52.242;20.980;2024-03-02T05:34:43;100048.78;;;5.99;91.74
17607;BME280;69222;52.242;20.980;2024-03-02T05:37:11;100047.09;;;5.98;91.65
17607;BME280;69222;52.242;20.980;2024-03-02T05:39:39;100043.63;;;5.93;92.26
17607;BME280;69222;52.242;20.980;2024-03-02T05:42:07;100041.94;;;5.96;92.74
17607;BME280;69222;52.242;20.980;2024-03-02T05:44:35;100056.47;;;5.99;93.05
17607;BME280;69222;52.242;20.980;2024-03-02T05:47:03;100051.38;;;6.02;92.72
17607;BME280;69222;52.242;20.980;2024-03-02T05:49:33;100059.03;;;6.00;91.87
17607;BME280;69222;52.242;20.980;2024-03-02T05:52:01;100056.50;;;6.00;93.01
17607;BME280;69222;52.242;20.980;2024-03-02T05:54:29;100065.03;;;6.04;93.03
17607;BME280;69222;52.242;20.980;2024-03-02T05:56:57;100063.31;;;6.03;92.97
17607;BME280;69222;52.242;20.980;2024-03-02T05:59:43;100055.66;;;6.04;91.82
17607;BME280;69222;52.242;20.980;2024-03-02T06:02:11;100059.91;;;6.05;92.27
17607;BME280;69222;52.242;20.980;2024-03-02T06:04:40;100070.16;;;6.04;91.94
17607;BME280;69222;52.242;20.980;2024-03-02T06:07:09;100063.31;;;6.03;92.01
17607;BME280;69222;52.242;20.980;2024-03-02T06:09:37;100068.41;;;6.03;91.88
17607;BME280;69222;52.242;20.980;2024-03-02T06:12:05;100060.72;;;6.00;92.18
17607;BME280;69222;52.242;20.980;2024-03-02T06:14:33;100075.25;;;6.01;92.21
17607;BME280;69222;52.242;20.980;2024-03-02T06:17:01;100073.50;;;5.98;92.73
17607;BME280;69222;52.242;20.980;2024-03-02T06:19:29;100066.72;;;6.02;92.85
17607;BME280;69222;52.242;20.980;2024-03-02T06:21:58;100072.72;;;6.04;91.96
17607;BME280;69222;52.242;20.980;2024-03-02T06:24:27;100068.41;;;6.03;92.90
17607;BME280;69222;52.242;20.980;2024-03-02T06:26:55;100073.56;;;6.04;92.31
17607;BME280;69222;52.242;20.980;2024-03-02T06:29:23;100079.53;;;6.05;92.48
17607;BME280;69222;52.242;20.980;2024-03-02T06:31:51;100068.41;;;6.03;92.34
17607;BME280;69222;52.242;20.980;2024-03-02T06:34:20;100076.97;;;6.05;92.46
17607;BME280;69222;52.242;20.980;2024-03-02T06:36:49;100092.34;;;6.11;93.05
17607;BME280;69222;52.242;20.980;2024-03-02T06:39:18;100082.16;;;6.17;93.11
17607;BME280;69222;52.242;20.980;2024-03-02T06:41:46;100086.47;;;6.24;92.49
17607;BME280;69222;52.242;20.980;2024-03-02T06:44:14;100088.19;;;6.24;91.94
17607;BME280;69222;52.242;20.980;2024-03-02T06:46:42;100094.22;;;6.31;92.39
17607;BME280;69222;52.242;20.980;2024-03-02T06:49:11;100096.78;;;6.34;91.70
17607;BME280;69222;52.242;20.980;2024-03-02T06:51:39;100084.00;;;6.35;91.83
17607;BME280;69222;52.242;20.980;2024-03-02T06:54:08;100084.00;;;6.40;91.00
17607;BME280;69222;52.242;20.980;2024-03-02T06:56:38;100090.88;;;6.41;91.49
17607;BME280;69222;52.242;20.980;2024-03-02T06:59:06;100092.56;;;6.42;91.53
17607;BME280;69222;52.242;20.980;2024-03-02T07:01:34;100095.13;;;6.43;91.40
17607;BME280;69222;52.242;20.980;2024-03-02T07:04:02;100090.03;;;6.45;90.74
17607;BME280;69222;52.242;20.980;2024-03-02T07:06:33;100099.41;;;6.47;90.45
17607;BME280;69222;52.242;20.980;2024-03-02T07:09:01;100090.91;;;6.50;90.13
17607;BME280;69222;52.242;20.980;2024-03-02T07:11:29;100093.47;;;6.51;89.95
17607;BME280;69222;52.242;20.980;2024-03-02T07:13:59;100088.38;;;6.53;90.28
17607;BME280;69222;52.242;20.980;2024-03-02T07:16:27;100091.78;;;6.53;89.87
17607;BME280;69222;52.242;20.980;2024-03-02T07:18:59;100091.78;;;6.53;90.00
17607;BME280;69222;52.242;20.980;2024-03-02T07:21:28;100090.06;;;6.52;90.35
17607;BME280;69222;52.242;20.980;2024-03-02T07:23:56;100096.03;;;6.53;90.00
17607;BME280;69222;52.242;20.980;2024-03-02T07:26:25;100091.75;;;6.50;90.28
17607;BME280;69222;52.242;20.980;2024-03-02T07:28:56;100101.13;;;6.51;89.86
17607;BME280;69222;52.242;20.980;2024-03-02T07:31:26;100107.94;;;6.48;89.80
17607;BME280;69222;52.242;20.980;2024-03-02T07:33:54;100097.72;;;6.46;90.12
17607;BME280;69222;52.242;20.980;2024-03-02T07:36:22;100101.16;;;6.50;90.56
17607;BME280;69222;52.242;20.980;2024-03-02T07:38:50;100096.88;;;6.49;90.44
17607;BME280;69222;52.242;20.980;2024-03-02T07:41:18;100101.97;;;6.46;90.25
17607;BME280;69222;52.242;20.980;2024-03-02T07:43:46;100105.38;;;6.46;90.56
17607;BME280;69222;52.242;20.980;2024-03-02T07:46:15;100106.25;;;6.50;90.63
17607;BME280;69222;52.242;20.980;2024-03-02T07:48:45;100097.72;;;6.51;91.04
17607;BME280;69222;52.242;20.980;2024-03-02T07:51:14;100106.25;;;6.51;90.73
17607;BME280;69222;52.242;20.980;2024-03-02T07:53:44;100099.47;;;6.52;90.60
17607;BME280;69222;52.242;20.980;2024-03-02T07:56:13;100099.47;;;6.57;90.27
17607;BME280;69222;52.242;20.980;2024-03-02T07:58:48;100108.03;;;6.60;90.94
17607;BME280;69222;52.242;20.980;2024-03-02T08:01:16;100113.16;;;6.66;90.18
17607;BME280;69222;52.242;20.980;2024-03-02T08:03:46;100120.88;;;6.72;89.95
17607;BME280;69222;52.242;20.980;2024-03-02T08:06:16;100126.88;;;6.76;90.18
17607;BME280;69222;52.242;20.980;2024-03-02T08:08:47;100125.19;;;6.80;89.78
17607;BME280;69222;52.242;20.980;2024-03-02T08:11:16;100131.22;;;6.86;89.42
17607;BME280;69222;52.242;20.980;2024-03-02T08:13:47;100132.09;;;6.93;89.12
17607;BME280;69222;52.242;20.980;2024-03-02T08:16:15;100121.84;;;6.93;89.52
17607;BME280;69222;52.242;20.980;2024-03-02T08:18:48;100123.56;;;6.98;88.94
17607;BME280;69222;52.242;20.980;2024-03-02T08:21:16;100122.72;;;6.98;88.13
17607;BME280;69222;52.242;20.980;2024-03-02T08:23:45;100121.88;;;7.00;88.47
17607;BME280;69222;52.242;20.980;2024-03-02T08:26:13;100129.56;;;7.02;87.77
17607;BME280;69222;52.242;20.980;2024-03-02T08:28:41;100123.59;;;7.03;88.01
17607;BME280;69222;52.242;20.980;2024-03-02T08:31:09;100118.50;;;7.05;88.59
17607;BME280;69222;52.242;20.980;2024-03-02T08:33:38;100121.94;;;7.11;88.24
17607;BME280;69222;52.242;20.980;2024-03-02T08:36:08;100115.94;;;7.14;87.57
17607;BME280;69222;52.242;20.980;2024-03-02T08:38:37;100131.34;;;7.11;87.78
17607;BME280;69222;52.242;20.980;2024-03-02T08:41:06;100132.19;;;7.13;88.57
17607;BME280;69222;52.242;20.980;2024-03-02T08:43:35;100133.03;;;7.18;88.60
17607;BME280;69222;52.242;20.980;2024-03-02T08:46:03;100130.50;;;7.22;87.98
17607;BME280;69222;52.242;20.980;2024-03-02T08:48:31;100138.19;;;7.24;87.92
17607;BME280;69222;52.242;20.980;2024-03-02T08:50:59;100127.09;;;7.23;86.85
17607;BME280;69222;52.242;20.980;2024-03-02T08:53:29;100142.47;;;7.28;87.43
17607;BME280;69222;52.242;20.980;2024-03-02T08:55:57;100133.94;;;7.28;87.92
17607;BME280;69222;52.242;20.980;2024-03-02T08:58:28;100138.19;;;7.29;86.72
17607;BME280;69222;52.242;20.980;2024-03-02T09:00:56;100130.50;;;7.24;86.69
17607;BME280;69222;52.242;20.980;2024-03-02T09:03:24;100130.53;;;7.25;86.53
17607;BME280;69222;52.242;20.980;2024-03-02T09:05:52;100138.19;;;7.29;87.29
17607;BME280;69222;52.242;20.980;2024-03-02T09:08:20;100134.78;;;7.23;86.21
17607;BME280;69222;52.242;20.980;2024-03-02T09:10:50;100133.09;;;7.30;86.91
17607;BME280;69222;52.242;20.980;2024-03-02T09:13:18;100142.47;;;7.33;87.73
17607;BME280;69222;52.242;20.980;2024-03-02T09:15:46;100135.69;;;7.41;87.51
17607;BME280;69222;52.242;20.980;2024-03-02T09:18:14;100139.94;;;7.43;86.85
17607;BME280;69222;52.242;20.980;2024-03-02T09:20:42;100130.59;;;7.44;86.33
17607;BME280;69222;52.242;20.980;2024-03-02T09:23:10;100140.81;;;7.47;86.36
17607;BME280;69222;52.242;20.980;2024-03-02T09:25:38;100132.28;;;7.49;86.69
17607;BME280;69222;52.242;20.980;2024-03-02T09:28:07;100144.28;;;7.55;86.85
17607;BME280;69222;52.242;20.980;2024-03-02T09:30:36;100139.16;;;7.64;86.60
17607;BME280;69222;52.242;20.980;2024-03-02T09:33:04;100144.31;;;7.70;86.50
17607;BME280;69222;52.242;20.980;2024-03-02T09:35:35;100135.75;;;7.71;85.29
17607;BME280;69222;52.242;20.980;2024-03-02T09:38:03;100137.44;;;7.69;85.06
17607;BME280;69222;52.242;20.980;2024-03-02T09:40:31;100134.03;;;7.70;85.21
17607;BME280;69222;52.242;20.980;2024-03-02T09:43:00;100135.75;;;7.70;85.51
17607;BME280;69222;52.242;20.980;2024-03-02T09:45:30;100137.44;;;7.72;85.42
17607;BME280;69222;52.242;20.980;2024-03-02T09:47:58;100137.44;;;7.72;84.66
17607;BME280;69222;52.242;20.980;2024-03-02T09:50:27;100134.91;;;7.75;84.87
17607;BME280;69222;52.242;20.980;2024-03-02T09:52:55;100128.09;;;7.81;85.38
17607;BME280;69222;52.242;20.980;2024-03-02T09:55:23;100141.75;;;7.89;85.04
17607;BME280;69222;52.242;20.980;2024-03-02T09:57:51;100131.50;;;7.89;83.60
17607;BME280;69222;52.242;20.980;2024-03-02T10:00:20;100133.22;;;7.88;83.68
17607;BME280;69222;52.242;20.980;2024-03-02T10:02:49;100130.66;;;7.96;84.08
17607;BME280;69222;52.242;20.980;2024-03-02T10:05:24;100136.63;;;7.98;83.73
17607;BME280;69222;52.242;20.980;2024-03-02T10:07:59;100128.06;;;7.94;83.56
17607;BME280;69222;52.242;20.980;2024-03-02T10:10:35;100129.78;;;7.94;84.31
17607;BME280;69222;52.242;20.980;2024-03-02T10:13:07;100127.22;;;8.00;84.28
17607;BME280;69222;52.242;20.980;2024-03-02T10:15:38;100127.22;;;8.03;83.22
17607;BME280;69222;52.242;20.980;2024-03-02T10:18:10;100120.38;;;8.04;83.21
17607;BME280;69222;52.242;20.980;2024-03-02T10:20:39;100111.81;;;8.06;83.48
17607;BME280;69222;52.242;20.980;2024-03-02T10:23:11;100101.56;;;8.09;83.93
17607;BME280;69222;52.242;20.980;2024-03-02T10:25:40;100103.25;;;8.13;84.00
17607;BME280;69222;52.242;20.980;2024-03-02T10:28:23;100106.69;;;8.20;83.32
17607;BME280;69222;52.242;20.980;2024-03-02T10:30:51;100107.53;;;8.20;83.02
17607;BME280;69222;52.242;20.980;2024-03-02T10:33:22;100104.97;;;8.20;82.84
17607;BME280;69222;52.242;20.980;2024-03-02T10:35:50;100115.25;;;8.19;82.70
17607;BME280;69222;52.242;20.980;2024-03-02T10:38:18;100105.81;;;8.21;83.01
17607;BME280;69222;52.242;20.980;2024-03-02T10:40:47;100108.41;;;8.26;82.71
17607;BME280;69222;52.242;20.980;2024-03-02T10:43:16;100108.38;;;8.35;82.74
17607;BME280;69222;52.242;20.980;2024-03-02T10:45:47;100104.09;;;8.43;81.45
17607;BME280;69222;52.242;20.980;2024-03-02T10:48:19;100109.25;;;8.48;81.69
17607;BME280;69222;52.242;20.980;2024-03-02T10:50:50;100093.81;;;8.54;81.63
17607;BME280;69222;52.242;20.980;2024-03-02T10:53:21;100100.66;;;8.59;81.19
17607;BME280;69222;52.242;20.980;2024-03-02T10:55:50;100100.66;;;8.65;81.28
17607;BME280;69222;52.242;20.980;2024-03-02T10:58:24;100107.47;;;8.68;81.15
17607;BME280;69222;52.242;20.980;2024-03-02T11:00:55;100094.59;;;8.76;81.28
17607;BME280;69222;52.242;20.980;2024-03-02T11:03:23;100093.72;;;8.80;80.78
17607;BME280;69222;52.242;20.980;2024-03-02T11:05:53;100086.91;;;8.77;80.13
17607;BME280;69222;52.242;20.980;2024-03-02T11:08:23;100092.91;;;8.75;80.20
17607;BME280;69222;52.242;20.980;2024-03-02T11:10:57;100092.91;;;8.73;80.46
17607;BME280;69222;52.242;20.980;2024-03-02T11:13:31;100090.34;;;8.75;80.81
17607;BME280;69222;52.242;20.980;2024-03-02T11:16:06;100090.31;;;8.76;81.11
17607;BME280;69222;52.242;20.980;2024-03-02T11:18:37;100085.19;;;8.81;80.22
17607;BME280;69222;52.242;20.980;2024-03-02T11:21:07;100086.91;;;8.80;80.31
17607;BME280;69222;52.242;20.980;2024-03-02T11:23:36;100079.19;;;8.76;80.24
17607;BME280;69222;52.242;20.980;2024-03-02T11:26:17;100086.91;;;8.77;80.01
17607;BME280;69222;52.242;20.980;2024-03-02T11:28:45;100075.75;;;8.83;81.19
17607;BME280;69222;52.242;20.980;2024-03-02T11:31:14;100078.28;;;8.93;80.61
17607;BME280;69222;52.242;20.980;2024-03-02T11:33:42;100076.53;;;9.03;80.42
17607;BME280;69222;52.242;20.980;2024-03-02T11:36:11;100084.22;;;9.06;79.48
17607;BME280;69222;52.242;20.980;2024-03-02T11:38:43;100078.19;;;9.09;79.00
17607;BME280;69222;52.242;20.980;2024-03-02T11:41:11;100073.91;;;9.09;79.74
17607;BME280;69222;52.242;20.980;2024-03-02T11:43:42;100065.34;;;9.12;79.74
17607;BME280;69222;52.242;20.980;2024-03-02T11:46:11;100068.75;;;9.12;79.21
17607;BME280;69222;52.242;20.980;2024-03-02T11:48:40;100075.63;;;9.13;79.50
17607;BME280;69222;52.242;20.980;2024-03-02T11:51:08;100061.91;;;9.11;79.29
17607;BME280;69222;52.242;20.980;2024-03-02T11:53:38;100067.00;;;9.16;79.55
17607;BME280;69222;52.242;20.980;2024-03-02T11:56:09;100060.13;;;9.23;79.82
17607;BME280;69222;52.242;20.980;2024-03-02T11:58:39;100058.34;;;9.31;78.73
17607;BME280;69222;52.242;20.980;2024-03-02T12:01:10;100060.03;;;9.38;78.16
17607;BME280;69222;52.242;20.980;2024-03-02T12:03:39;100055.72;;;9.44;78.19
17607;BME280;69222;52.242;20.980;2024-03-02T12:06:07;100053.09;;;9.54;78.14
17607;BME280;69222;52.242;20.980;2024-03-02T12:08:36;100062.44;;;9.61;77.72
17607;BME280;69222;52.242;20.980;2024-03-02T12:11:05;100059.84;;;9.65;77.54
17607;BME280;69222;52.242;20.980;2024-03-02T12:13:34;100058.97;;;9.70;77.38
17607;BME280;69222;52.242;20.980;2024-03-02T12:16:02;100046.91;;;9.75;77.17
17607;BME280;69222;52.242;20.980;2024-03-02T12:18:31;100050.25;;;9.84;77.44
17607;BME280;69222;52.242;20.980;2024-03-02T12:21:00;100039.03;;;9.93;76.34
17607;BME280;69222;52.242;20.980;2024-03-02T12:23:30;100046.66;;;10.01;76.51
17607;BME280;69222;52.242;20.980;2024-03-02T12:26:01;100049.22;;;10.05;75.72
17607;BME280;69222;52.242;20.980;2024-03-02T12:28:29;100061.16;;;10.12;75.47
17607;BME280;69222;52.242;20.980;2024-03-02T12:30:59;100066.28;;;10.15;75.40
17607;BME280;69222;52.242;20.980;2024-03-02T12:33:27;100061.94;;;10.19;75.11
17607;BME280;69222;52.242;20.980;2024-03-02T12:35:56;100063.66;;;10.22;75.27
17607;BME280;69222;52.242;20.980;2024-03-02T12:38:25;100068.78;;;10.26;74.98
17607;BME280;69222;52.242;20.980;2024-03-02T12:41:00;100061.06;;;10.28;74.63
17607;BME280;69222;52.242;20.980;2024-03-02T12:43:30;100071.38;;;10.22;74.15
17607;BME280;69222;52.242;20.980;2024-03-02T12:45:58;100064.53;;;10.16;74.79
17607;BME280;69222;52.242;20.980;2024-03-02T12:48:29;100063.75;;;10.11;75.12
17607;BME280;69222;52.242;20.980;2024-03-02T12:50:57;100060.28;;;10.12;75.13
17607;BME280;69222;52.242;20.980;2024-03-02T12:53:25;100067.19;;;10.10;75.20
17607;BME280;69222;52.242;20.980;2024-03-02T12:55:53;100062.91;;;10.07;75.12
17607;BME280;69222;52.242;20.980;2024-03-02T12:58:24;100061.28;;;10.00;75.48
17607;BME280;69222;52.242;20.980;2024-03-02T13:01:05;100057.00;;;9.98;75.66